PANT Airport Information

Runway Information
Runway 02 Length 5709 ft width 150 ft
Elevation 93 ft Threshold 0 ft Heading 47
Runway 20 Length 5709 ft Width 150 ft
Elevation 94 ft Threshold 0 ft Heading 227
Runway 12 Length 7493 ft width 150 ft
Elevation 119 ft Threshold 0 ft Heading 148
Runway 30 Length 7493 ft Width 150 ft
Elevation 85 ft Threshold 0 ft Heading 328
Airport Frequencies
Type ASOS Name ASOS Frequency 135.75 MHZ
Type CTAF Name CTAF Frequency 122.9 MHZ
Type FSS Name KETCHIKAN Frequency 122.4 MHZ
Airport Navaids
Type VOR-DME Name Annette Island Frequency 117100 KHZ
Type NDB Name Nichols Frequency 266 KHZ
Airport Weather Information & NOTAM
ADDS - METARS form results

(0343 UTC 20 January 2019)
Data provider http://aviationweather.gov/metar/data/
 
METAR text: PANT 200253Z AUTO 14006KT 10SM -RA SCT009 OVC026 05/04 A2956 RMK RAE07B43 SLP011 P0000 60004 T00500044 52013 TSNO $ VIA AUTODIAL
Conditions at: PANT (ANNETTE ISLAND , AK, US) observed 0253 UTC 20 January 2019
Temperature: 5.0°C (41°F)
Dewpoint: 4.4°C (40°F) [RH = 96%]
Pressure (altimeter): 29.56 inches Hg (1001.1 mb)
[Sea-level pressure: 1001.1 mb]
Winds: from the SE (140 degrees) at 7 MPH (6 knots; 3.1 m/s)
Visibility: 10 or more miles (16+ km)
Ceiling: 2600 feet AGL
Clouds: scattered clouds at 900 feet AGL
overcast cloud deck at 2600 feet AGL
Weather: -RA  (light rain)
SOME DATA ABOVE MAY BE INACCURATE!!!
"$" is an indication the sensor requires maintenance

METAR text: PANT 200251Z AUTO 14006KT 10SM -RA SCT009 OVC026 05/04 A2956 RMK RAE07B43 P0000 TSNO $ VIA AUTODIAL
Conditions at: PANT (ANNETTE ISLAND , AK, US) observed 0251 UTC 20 January 2019
Temperature: 5.0°C (41°F)
Dewpoint: 4.0°C (39°F) [RH = 93%]
Pressure (altimeter): 29.56 inches Hg (1001.1 mb)
Winds: from the SE (140 degrees) at 7 MPH (6 knots; 3.1 m/s)
Visibility: 10 or more miles (16+ km)
Ceiling: 2600 feet AGL
Clouds: scattered clouds at 900 feet AGL
overcast cloud deck at 2600 feet AGL
Weather: -RA  (light rain)
SOME DATA ABOVE MAY BE INACCURATE!!!
"$" is an indication the sensor requires maintenance